Terminal Aerodrome Forecast
Issued by NWS Shreveport, LA

Home | Current Version | Previous Version | Text Only | Print | Product List | Glossary On
Versions: 1 2 3 4 5 6 7 8 9 10 11 12 13
000
FTUS44 KSHV 210520
TAFTXK
TAF
KTXK 210520Z 2106/2206 12004KT P6SM FEW150
     FM211500 12008KT P6SM SCT030 BKN150
     FM212100 12011KT P6SM VCTS SCT015 BKN030CB
     FM220000 12008KT 5SM TSRA BR SCT010 OVC020CB=

USA.gov is the U.S. government's official web portal to all federal, state and local government web resources and services.